createdAt,value
2018-08-11T00:00:51.327Z,101747.38
2018-08-11T00:03:20.037Z,101745.85
2018-08-11T00:05:48.691Z,101748.63
2018-08-11T00:08:17.381Z,101742.16
2018-08-11T00:10:46.051Z,101738.62
2018-08-11T00:13:14.744Z,101736.05
2018-08-11T00:15:43.458Z,101732.47
2018-08-11T00:18:12.164Z,101734.13
2018-08-11T00:20:49.419Z,101732.63
2018-08-11T00:23:18.100Z,101730.10
2018-08-11T00:25:46.789Z,101725.20
2018-08-11T00:28:15.464Z,101720.61
2018-08-11T00:30:44.130Z,101718.41
2018-08-11T00:33:12.822Z,101716.84
2018-08-11T00:35:41.495Z,101710.77
2018-08-11T00:38:10.183Z,101709.08
2018-08-11T00:40:38.858Z,101705.87
2018-08-11T00:43:07.588Z,101703.17
2018-08-11T00:45:36.255Z,101692.92
2018-08-11T00:48:05.380Z,101695.27
2018-08-11T00:50:34.917Z,101689.79
2018-08-11T00:53:04.166Z,101689.31
2018-08-11T00:55:32.880Z,101687.30
2018-08-11T00:58:01.580Z,101688.30
2018-08-11T01:00:30.264Z,101683.69
2018-08-11T01:02:59.025Z,101679.78
2018-08-11T01:05:27.718Z,101674.48
2018-08-11T01:07:56.470Z,101678.59
2018-08-11T01:10:25.138Z,101672.31
2018-08-11T01:12:53.817Z,101666.20
2018-08-11T01:15:23.219Z,101667.09
2018-08-11T01:17:52.508Z,101667.94
2018-08-11T01:20:21.187Z,101661.27
2018-08-11T01:22:50.540Z,101669.30
2018-08-11T01:25:19.235Z,101662.84
2018-08-11T01:27:47.925Z,101664.20
2018-08-11T01:30:19.291Z,101662.55
2018-08-11T01:32:47.982Z,101657.94
2018-08-11T01:35:16.699Z,101661.87
2018-08-11T01:37:45.839Z,101655.76
2018-08-11T01:40:15.597Z,101653.87
2018-08-11T01:42:45.495Z,101649.48
2018-08-11T01:45:14.906Z,101652.55
2018-08-11T01:47:43.778Z,101645.32
2018-08-11T01:50:13.803Z,101647.34
2018-08-11T01:52:43.591Z,101647.82
2018-08-11T01:55:14.029Z,101644.44
2018-08-11T01:57:42.779Z,101646.36
2018-08-11T02:00:12.922Z,101642.80
2018-08-11T02:02:41.892Z,101635.48
2018-08-11T02:05:11.537Z,101640.45
2018-08-11T02:07:41.559Z,101632.98
2018-08-11T02:10:15.731Z,101635.00
2018-08-11T02:12:44.787Z,101631.58
2018-08-11T02:15:14.233Z,101627.00
2018-08-11T02:17:42.983Z,101622.06
2018-08-11T02:20:13.911Z,101613.16
2018-08-11T02:22:43.827Z,101615.36
2018-08-11T02:25:12.536Z,101617.09
2018-08-11T02:27:41.221Z,101610.06
2018-08-11T02:30:12.407Z,101610.39
2018-08-11T02:32:41.503Z,101611.27
2018-08-11T02:35:11.553Z,101603.55
2018-08-11T02:37:40.527Z,101604.36
2018-08-11T02:40:10.889Z,101601.95
2018-08-11T02:42:39.603Z,101594.61
2018-08-11T02:45:10.010Z,101595.93
2018-08-11T02:47:38.689Z,101585.20
2018-08-11T02:50:08.959Z,101581.75
2018-08-11T02:52:37.995Z,101583.63
2018-08-11T02:55:06.810Z,101579.13
2018-08-11T02:57:35.486Z,101576.86
2018-08-11T03:00:05.063Z,101576.14
2018-08-11T03:02:33.768Z,101576.98
2018-08-11T03:05:02.440Z,101571.88
2018-08-11T03:07:31.108Z,101564.98
2018-08-11T03:09:59.828Z,101563.94
2018-08-11T03:12:28.487Z,101563.20
2018-08-11T03:14:57.165Z,101557.16
2018-08-11T03:17:25.820Z,101553.81
2018-08-11T03:19:54.484Z,101552.23
2018-08-11T03:22:23.127Z,101552.50
2018-08-11T03:24:51.800Z,101561.64
2018-08-11T03:27:20.434Z,101557.02
2018-08-11T03:29:49.122Z,101556.80
2018-08-11T03:32:17.742Z,101558.73
2018-08-11T03:34:46.418Z,101565.19
2018-08-11T03:37:15.068Z,101565.82
2018-08-11T03:39:43.737Z,101557.34
2018-08-11T03:42:12.371Z,101553.29
2018-08-11T03:44:41.020Z,101556.17
2018-08-11T03:47:09.655Z,101550.53
2018-08-11T03:49:38.298Z,101554.11
2018-08-11T03:52:07.008Z,101552.59
2018-08-11T03:54:35.657Z,101546.75
2018-08-11T03:57:04.347Z,101548.37
2018-08-11T03:59:32.987Z,101547.34
2018-08-11T04:02:01.716Z,101546.56
2018-08-11T04:04:30.381Z,101540.48
2018-08-11T04:06:59.189Z,101536.83
2018-08-11T04:09:27.832Z,101542.00
2018-08-11T04:11:56.524Z,101539.44
2018-08-11T04:14:25.147Z,101539.86
2018-08-11T04:16:53.831Z,101543.69
2018-08-11T04:19:22.490Z,101537.58
2018-08-11T04:21:51.146Z,101546.81
2018-08-11T04:24:19.820Z,101540.50
2018-08-11T04:26:48.476Z,101547.03
2018-08-11T04:29:17.107Z,101546.19
2018-08-11T04:31:45.761Z,101547.55
2018-08-11T04:34:14.422Z,101549.10
2018-08-11T04:36:43.100Z,101553.00
2018-08-11T04:39:11.745Z,101556.38
2018-08-11T04:41:40.444Z,101558.02
2018-08-11T04:44:09.082Z,101556.33
2018-08-11T04:46:37.744Z,101550.44
2018-08-11T04:49:06.441Z,101556.13
2018-08-11T04:51:35.107Z,101563.25
2018-08-11T04:54:03.768Z,101569.23
2018-08-11T04:56:32.415Z,101568.83
2018-08-11T04:59:01.114Z,101572.45
2018-08-11T05:01:29.774Z,101569.20
2018-08-11T05:03:58.427Z,101574.08
2018-08-11T05:06:27.121Z,101577.78
2018-08-11T05:08:55.777Z,101587.12
2018-08-11T05:11:24.443Z,101586.92
2018-08-11T05:13:53.093Z,101587.58
2018-08-11T05:16:21.790Z,101595.59
2018-08-11T05:18:50.414Z,101602.80
2018-08-11T05:21:19.072Z,101597.75
2018-08-11T05:23:47.720Z,101605.05
2018-08-11T05:26:16.428Z,101612.97
2018-08-11T05:28:45.043Z,101614.89
2018-08-11T05:31:13.693Z,101616.07
2018-08-11T05:33:42.318Z,101617.16
2018-08-11T05:36:10.963Z,101620.54
2018-08-11T05:38:39.612Z,101626.89
2018-08-11T05:41:08.295Z,101632.49
2018-08-11T05:43:36.917Z,101621.09
2018-08-11T05:46:05.650Z,101623.22
2018-08-11T05:48:34.280Z,101634.95
2018-08-11T05:51:02.975Z,101633.04
2018-08-11T05:53:31.600Z,101628.41
2018-08-11T05:56:00.254Z,101629.15
2018-08-11T05:58:28.922Z,101632.63
2018-08-11T06:00:57.558Z,101634.42
2018-08-11T06:03:26.206Z,101636.32
2018-08-11T06:05:54.853Z,101625.00
2018-08-11T06:08:23.501Z,101644.55
2018-08-11T06:10:52.130Z,101632.82
2018-08-11T06:13:20.791Z,101631.14
2018-08-11T06:15:49.451Z,101620.45
2018-08-11T06:18:18.106Z,101621.50
2018-08-11T06:20:46.738Z,101619.52
2018-08-11T06:23:15.399Z,101612.01
2018-08-11T06:25:44.030Z,101610.22
2018-08-11T06:28:12.732Z,101623.13
2018-08-11T06:30:41.366Z,101630.61
2018-08-11T06:33:10.028Z,101637.47
2018-08-11T06:35:38.666Z,101646.25
2018-08-11T06:38:07.326Z,101647.05
2018-08-11T06:40:35.974Z,101641.94
2018-08-11T06:43:04.665Z,101646.69
2018-08-11T06:45:33.285Z,101648.72
2018-08-11T06:48:01.959Z,101654.14
2018-08-11T06:50:30.620Z,101650.78
2018-08-11T06:52:59.276Z,101652.16
2018-08-11T06:55:27.961Z,101655.77
2018-08-11T06:57:56.598Z,101657.36
2018-08-11T07:00:25.248Z,101659.92
2018-08-11T07:02:53.892Z,101661.19
2018-08-11T07:05:22.539Z,101664.06
2018-08-11T07:07:51.202Z,101668.95
2018-08-11T07:10:19.830Z,101675.92
2018-08-11T07:12:48.506Z,101678.89
2018-08-11T07:15:17.141Z,101676.77
2018-08-11T07:17:45.868Z,101678.87
2018-08-11T07:20:14.514Z,101676.76
2018-08-11T07:22:43.188Z,101663.72
2018-08-11T07:25:11.895Z,101665.40
2018-08-11T07:27:40.562Z,101656.18
2018-08-11T07:30:09.237Z,101658.01
2018-08-11T07:32:37.897Z,101661.53
2018-08-11T07:35:06.571Z,101660.49
2018-08-11T07:37:35.255Z,101673.34
2018-08-11T07:40:04.065Z,101674.61
2018-08-11T07:42:32.778Z,101682.17
2018-08-11T07:45:01.435Z,101677.67
2018-08-11T07:47:30.120Z,101676.77
2018-08-11T07:49:58.810Z,101672.79
2018-08-11T07:52:27.501Z,101661.19
2018-08-11T07:54:56.159Z,101670.64
2018-08-11T07:57:24.860Z,101665.77
2018-08-11T07:59:53.497Z,101668.30
2018-08-11T08:02:22.148Z,101669.02
2018-08-11T08:04:50.812Z,101672.16
2018-08-11T08:07:19.491Z,101669.03
2018-08-11T08:09:48.170Z,101661.53
2018-08-11T08:12:16.820Z,101661.80
2018-08-11T08:14:45.508Z,101657.80
2018-08-11T08:17:14.185Z,101664.30
2018-08-11T08:19:42.839Z,101662.75
2018-08-11T08:22:11.465Z,101662.03
2018-08-11T08:24:40.156Z,101656.29
2018-08-11T08:27:08.785Z,101656.61
2018-08-11T08:29:37.451Z,101655.32
2018-08-11T08:32:06.200Z,101646.60
2018-08-11T08:34:34.862Z,101642.14
2018-08-11T08:37:03.518Z,101652.61
2018-08-11T08:39:32.180Z,101648.94
2018-08-11T08:42:00.823Z,101652.70
2018-08-11T08:44:29.491Z,101653.91
2018-08-11T08:46:58.123Z,101659.33
2018-08-11T08:49:26.780Z,101654.34
2018-08-11T08:51:55.407Z,101657.23
2018-08-11T08:54:24.056Z,101661.21
2018-08-11T08:56:52.689Z,101661.36
2018-08-11T08:59:21.357Z,101659.25
2018-08-11T09:01:50.006Z,101656.31
2018-08-11T09:04:18.676Z,101650.05
2018-08-11T09:06:47.324Z,101650.77
2018-08-11T09:09:15.995Z,101651.98
2018-08-11T09:11:44.678Z,101647.25
2018-08-11T09:14:13.317Z,101646.80
2018-08-11T09:16:42.034Z,101643.09
2018-08-11T09:19:10.742Z,101651.39
2018-08-11T09:21:39.379Z,101638.18
2018-08-11T09:24:08.064Z,101633.71
2018-08-11T09:26:36.723Z,101632.39
2018-08-11T09:29:05.488Z,101630.58
2018-08-11T09:31:34.129Z,101629.32
2018-08-11T09:34:02.798Z,101620.59
2018-08-11T09:36:31.683Z,101625.23
2018-08-11T09:39:00.390Z,101621.95
2018-08-11T09:43:56.639Z,101620.42
2018-08-11T09:46:25.307Z,101621.14
2018-08-11T09:48:54.022Z,101618.86
2018-08-11T09:51:22.681Z,101612.95
2018-08-11T09:53:51.350Z,101626.16
2018-08-11T09:56:19.994Z,101629.70
2018-08-11T09:58:48.764Z,101636.00
2018-08-11T10:01:22.621Z,101621.20
2018-08-11T10:03:51.294Z,101615.74
2018-08-11T10:06:19.926Z,101606.95
2018-08-11T10:08:48.611Z,101618.16
2018-08-11T10:11:17.263Z,101609.75
2018-08-11T10:13:45.923Z,101620.25
2018-08-11T10:16:14.613Z,101613.98
2018-08-11T10:18:43.271Z,101606.33
2018-08-11T10:21:11.972Z,101606.58
2018-08-11T10:23:40.633Z,101590.99
2018-08-11T10:26:09.303Z,101593.92
2018-08-11T10:28:37.948Z,101585.14
2018-08-11T10:31:06.612Z,101585.39
2018-08-11T10:33:35.260Z,101593.68
2018-08-11T10:36:03.982Z,101591.36
2018-08-11T10:38:32.694Z,101599.70
2018-08-11T10:41:01.396Z,101603.84
2018-08-11T10:43:30.027Z,101601.64
2018-08-11T10:45:58.703Z,101608.41
2018-08-11T10:48:27.357Z,101598.05
2018-08-11T10:50:56.040Z,101598.05
2018-08-11T10:53:24.679Z,101582.47
2018-08-11T10:55:53.346Z,101582.87
2018-08-11T10:58:22.039Z,101596.03
2018-08-11T11:00:50.772Z,101593.53
2018-08-11T11:03:19.607Z,101595.16
2018-08-11T11:05:48.302Z,101595.47
2018-08-11T11:08:16.988Z,101593.00
2018-08-11T11:10:45.681Z,101595.14
2018-08-11T11:13:14.463Z,101582.55
2018-08-11T11:15:43.121Z,101585.14
2018-08-11T11:18:11.812Z,101570.66
2018-08-11T11:20:40.506Z,101570.86
2018-08-11T11:23:09.183Z,101558.31
2018-08-11T11:25:37.848Z,101575.17
2018-08-11T11:28:06.572Z,101578.84
2018-08-11T11:30:35.251Z,101593.75
2018-08-11T11:33:03.955Z,101601.63
2018-08-11T11:35:32.632Z,101604.62
2018-08-11T11:38:01.296Z,101610.95
2018-08-11T11:40:29.964Z,101611.69
2018-08-11T11:42:58.627Z,101617.91
2018-08-11T11:45:27.364Z,101628.92
2018-08-11T11:47:56.701Z,101634.28
2018-08-11T11:50:25.363Z,101655.30
2018-08-11T11:52:54.014Z,101666.97
2018-08-11T11:55:22.854Z,101690.27
2018-08-11T11:57:51.500Z,101684.34
2018-08-11T12:00:20.196Z,101688.19
2018-08-11T12:02:49.690Z,101670.95
2018-08-11T12:05:18.355Z,101672.21
2018-08-11T12:07:47.004Z,101661.54
2018-08-11T12:10:15.721Z,101656.08
2018-08-11T12:12:44.385Z,101656.14
2018-08-11T12:15:13.094Z,101647.00
2018-08-11T12:17:41.749Z,101644.93
2018-08-11T12:20:10.427Z,101644.32
2018-08-11T12:22:39.104Z,101641.58
2018-08-11T12:25:08.060Z,101655.08
2018-08-11T12:27:36.717Z,101650.62
2018-08-11T12:30:07.867Z,101660.45
2018-08-11T12:32:36.525Z,101653.10
2018-08-11T12:35:05.447Z,101646.66
2018-08-11T12:37:34.107Z,101646.95
2018-08-11T12:40:02.751Z,101646.60
2018-08-11T12:42:31.399Z,101632.34
2018-08-11T12:45:00.044Z,101634.67
2018-08-11T12:47:28.691Z,101636.68
2018-08-11T12:49:57.336Z,101626.81
2018-08-11T12:52:26.007Z,101625.48
2018-08-11T12:54:54.682Z,101622.65
2018-08-11T12:57:23.375Z,101602.36
2018-08-11T12:59:52.006Z,101612.21
2018-08-11T13:02:20.661Z,101608.39
2018-08-11T13:04:49.291Z,101617.52
2018-08-11T13:07:17.961Z,101613.36
2018-08-11T13:09:46.606Z,101600.64
2018-08-11T13:12:15.289Z,101611.02
2018-08-11T13:14:43.928Z,101598.56
2018-08-11T13:17:12.612Z,101609.94
2018-08-11T13:19:41.259Z,101615.69
2018-08-11T13:22:09.943Z,101599.91
2018-08-11T13:24:38.597Z,101610.16
2018-08-11T13:27:07.282Z,101595.16
2018-08-11T13:29:35.962Z,101601.92
2018-08-11T13:32:04.685Z,101609.15
2018-08-11T13:34:33.316Z,101601.77
2018-08-11T13:37:02.056Z,101609.87
2018-08-11T13:39:30.783Z,101605.55
2018-08-11T13:41:59.536Z,101602.06
2018-08-11T13:44:28.195Z,101596.94
2018-08-11T13:46:56.856Z,101599.98
2018-08-11T13:49:25.516Z,101592.38
2018-08-11T13:51:54.275Z,101600.95
2018-08-11T13:54:22.972Z,101621.03
2018-08-11T13:56:51.628Z,101612.69
2018-08-11T13:59:20.276Z,101613.59
2018-08-11T14:01:49.037Z,101609.89
2018-08-11T14:04:17.691Z,101611.56
2018-08-11T14:06:46.348Z,101594.12
2018-08-11T14:09:15.001Z,101605.81
2018-08-11T14:11:43.685Z,101601.80
2018-08-11T14:14:12.413Z,101603.63
2018-08-11T14:16:41.138Z,101605.93
2018-08-11T14:19:09.784Z,101600.47
2018-08-11T14:21:39.488Z,101593.07
2018-08-11T14:24:08.829Z,101603.42
2018-08-11T14:26:37.581Z,101594.75
2018-08-11T14:29:06.252Z,101608.97
2018-08-11T14:31:35.018Z,101604.00
2018-08-11T14:34:03.704Z,101603.64
2018-08-11T14:36:33.777Z,101604.09
2018-08-11T14:39:02.547Z,101610.42
2018-08-11T14:41:31.225Z,101605.42
2018-08-11T14:43:59.921Z,101607.89
2018-08-11T14:46:28.991Z,101607.50
2018-08-11T14:48:57.681Z,101620.20
2018-08-11T14:51:26.312Z,101630.72
2018-08-11T14:53:54.999Z,101634.10
2018-08-11T14:56:23.738Z,101628.80
2018-08-11T14:58:52.375Z,101625.88
2018-08-11T15:01:21.059Z,101623.85
2018-08-11T15:03:49.744Z,101623.83
2018-08-11T15:06:18.440Z,101635.48
2018-08-11T15:08:47.132Z,101635.92
2018-08-11T15:11:17.164Z,101635.70
2018-08-11T15:13:45.891Z,101662.45
2018-08-11T15:16:16.042Z,101667.07
2018-08-11T15:18:44.743Z,101653.83
2018-08-11T15:21:13.379Z,101657.45
2018-08-11T15:23:42.057Z,101658.36
2018-08-11T15:26:10.701Z,101660.20
2018-08-11T15:28:39.361Z,101651.45
2018-08-11T15:31:08.121Z,101654.70
2018-08-11T15:33:36.768Z,101658.99
2018-08-11T15:36:05.419Z,101663.75
2018-08-11T15:38:34.062Z,101657.44
2018-08-11T15:41:02.753Z,101653.30
2018-08-11T15:43:32.354Z,101651.09
2018-08-11T15:46:00.996Z,101657.63
2018-08-11T15:48:29.658Z,101652.85
2018-08-11T15:50:58.300Z,101660.06
2018-08-11T15:53:28.045Z,101664.91
2018-08-11T15:55:56.743Z,101675.95
2018-08-11T15:58:26.608Z,101677.49
2018-08-11T16:00:56.618Z,101674.27
2018-08-11T16:03:25.319Z,101671.48
2018-08-11T16:05:55.474Z,101680.19
2018-08-11T16:08:26.781Z,101691.28
2018-08-11T16:10:55.884Z,101704.14
2018-08-11T16:13:24.558Z,101724.69
2018-08-11T16:15:53.191Z,101728.09
2018-08-11T16:18:21.869Z,101743.45
2018-08-11T16:20:50.503Z,101755.37
2018-08-11T16:23:19.277Z,101736.77
2018-08-11T16:25:47.908Z,101744.42
2018-08-11T16:28:16.582Z,101741.28
2018-08-11T16:30:45.220Z,101741.06
2018-08-11T16:33:13.878Z,101741.52
2018-08-11T16:35:42.522Z,101742.34
2018-08-11T16:38:11.199Z,101733.19
2018-08-11T16:40:39.852Z,101719.64
2018-08-11T16:43:08.522Z,101721.56
2018-08-11T16:45:37.172Z,101722.83
2018-08-11T16:48:06.432Z,101721.36
2018-08-11T16:50:35.103Z,101721.89
2018-08-11T16:53:03.809Z,101731.19
2018-08-11T16:55:32.489Z,101735.48
2018-08-11T16:58:01.200Z,101734.66
2018-08-11T17:00:29.864Z,101736.31
2018-08-11T17:02:58.531Z,101730.74
2018-08-11T17:05:27.255Z,101728.80
2018-08-11T17:07:55.892Z,101731.89
2018-08-11T17:10:24.554Z,101734.46
2018-08-11T17:12:53.235Z,101730.43
2018-08-11T17:15:21.894Z,101733.08
2018-08-11T17:17:50.552Z,101728.21
2018-08-11T17:20:19.206Z,101732.78
2018-08-11T17:22:47.879Z,101736.69
2018-08-11T17:25:16.993Z,101736.30
2018-08-11T17:27:45.635Z,101745.76
2018-08-11T17:30:15.886Z,101738.47
2018-08-11T17:32:44.574Z,101742.13
2018-08-11T17:35:13.235Z,101742.13
2018-08-11T17:37:41.883Z,101742.05
2018-08-11T17:40:10.600Z,101746.17
2018-08-11T17:42:39.597Z,101743.76
2018-08-11T17:45:08.259Z,101740.78
2018-08-11T17:47:36.918Z,101743.00
2018-08-11T17:50:06.262Z,101752.09
2018-08-11T17:52:34.901Z,101752.33
2018-08-11T17:55:03.577Z,101755.47
2018-08-11T17:57:32.193Z,101754.32
2018-08-11T18:00:00.904Z,101748.81
2018-08-11T18:02:29.596Z,101754.20
2018-08-11T18:04:58.264Z,101756.84
2018-08-11T18:07:26.896Z,101759.25
2018-08-11T18:09:55.551Z,101762.46
2018-08-11T18:12:24.199Z,101760.25
2018-08-11T18:14:52.846Z,101768.81
2018-08-11T18:17:21.553Z,101769.23
2018-08-11T18:19:50.358Z,101765.87
2018-08-11T18:22:18.927Z,101764.38
2018-08-11T18:24:47.602Z,101768.44
2018-08-11T18:27:16.250Z,101768.94
2018-08-11T18:29:44.935Z,101769.03
2018-08-11T18:32:13.629Z,101767.30
2018-08-11T18:34:42.313Z,101767.82
2018-08-11T18:37:10.955Z,101768.11
2018-08-11T18:39:39.609Z,101763.89
2018-08-11T18:42:08.255Z,101768.45
2018-08-11T18:44:36.936Z,101777.04
2018-08-11T18:47:05.764Z,101780.61
2018-08-11T18:49:34.425Z,101774.31
2018-08-11T18:52:03.121Z,101778.26
2018-08-11T18:54:31.871Z,101781.12
2018-08-11T18:57:00.545Z,101780.16
2018-08-11T18:59:29.194Z,101787.79
2018-08-11T19:01:57.840Z,101785.98
2018-08-11T19:04:26.536Z,101787.23
2018-08-11T19:06:55.211Z,101791.78
2018-08-11T19:09:23.914Z,101795.48
2018-08-11T19:11:52.621Z,101797.80
2018-08-11T19:14:21.265Z,101798.74
2018-08-11T19:16:50.043Z,101794.53
2018-08-11T19:19:18.684Z,101789.97
2018-08-11T19:21:47.353Z,101791.76
2018-08-11T19:24:15.985Z,101797.45
2018-08-11T19:26:44.742Z,101797.98
2018-08-11T19:29:13.368Z,101796.52
2018-08-11T19:31:42.121Z,101801.55
2018-08-11T19:34:10.760Z,101802.38
2018-08-11T19:36:39.457Z,101805.63
2018-08-11T19:39:10.387Z,101806.54
2018-08-11T19:41:39.533Z,101814.31
2018-08-11T19:44:08.185Z,101801.52
2018-08-11T19:46:37.161Z,101811.27
2018-08-11T19:49:05.960Z,101813.36
2018-08-11T19:51:34.614Z,101812.78
2018-08-11T19:54:03.312Z,101812.25
2018-08-11T19:56:31.974Z,101811.98
2018-08-11T19:59:00.663Z,101813.97
2018-08-11T20:01:29.346Z,101816.98
2018-08-11T20:03:57.979Z,101813.88
2018-08-11T20:06:26.635Z,101814.36
2018-08-11T20:08:55.328Z,101809.16
2018-08-11T20:11:24.052Z,101815.26
2018-08-11T20:13:52.696Z,101816.36
2018-08-11T20:16:21.385Z,101819.39
2018-08-11T20:18:50.065Z,101815.64
2018-08-11T20:21:18.736Z,101819.30
2018-08-11T20:23:47.393Z,101813.89
2018-08-11T20:26:16.073Z,101814.73
2018-08-11T20:28:44.758Z,101824.05
2018-08-11T20:31:13.444Z,101825.03
2018-08-11T20:33:42.186Z,101826.25
2018-08-11T20:36:10.852Z,101820.91
2018-08-11T20:38:39.543Z,101821.27
2018-08-11T20:41:08.689Z,101817.93
2018-08-11T20:43:37.285Z,101819.70
2018-08-11T20:46:06.015Z,101822.20
2018-08-11T20:48:34.720Z,101825.86
2018-08-11T20:51:03.422Z,101826.11
2018-08-11T20:53:32.073Z,101822.28
2018-08-11T20:56:01.079Z,101820.95
2018-08-11T20:58:29.722Z,101822.92
2018-08-11T21:00:58.496Z,101820.95
2018-08-11T21:03:27.155Z,101815.74
2018-08-11T21:05:55.861Z,101821.30
2018-08-11T21:08:24.560Z,101815.98
2018-08-11T21:10:53.266Z,101812.40
2018-08-11T21:13:21.975Z,101813.39
2018-08-11T21:15:50.653Z,101812.75
2018-08-11T21:18:19.342Z,101816.44
2018-08-11T21:20:48.059Z,101811.67
2018-08-11T21:23:16.811Z,101817.98
2018-08-11T21:25:45.475Z,101819.80
2018-08-11T21:28:14.186Z,101821.23
2018-08-11T21:30:42.885Z,101821.76
2018-08-11T21:33:11.573Z,101821.97
2018-08-11T21:35:40.237Z,101829.37
2018-08-11T21:38:08.952Z,101838.11
2018-08-11T21:40:37.607Z,101834.20
2018-08-11T21:43:06.313Z,101829.89
2018-08-11T21:45:34.987Z,101827.36
2018-08-11T21:48:03.742Z,101831.73
2018-08-11T21:50:32.403Z,101822.45
2018-08-11T21:53:01.236Z,101832.25
2018-08-11T21:55:29.923Z,101830.63
2018-08-11T21:57:58.622Z,101834.81
2018-08-11T22:00:34.263Z,101832.66
2018-08-11T22:03:03.077Z,101834.23
2018-08-11T22:05:31.858Z,101829.83
2018-08-11T22:08:01.524Z,101827.98
2018-08-11T22:10:30.615Z,101830.92
2018-08-11T22:12:59.368Z,101833.57
2018-08-11T22:15:28.156Z,101828.47
2018-08-11T22:17:56.867Z,101837.88
2018-08-11T22:20:25.540Z,101831.20
2018-08-11T22:22:54.290Z,101833.59
2018-08-11T22:25:22.963Z,101838.89
2018-08-11T22:27:51.650Z,101828.41
2018-08-11T22:30:20.297Z,101827.72
2018-08-11T22:32:49.008Z,101836.25
2018-08-11T22:35:17.660Z,101834.56
2018-08-11T22:37:46.353Z,101824.13
2018-08-11T22:40:15.044Z,101820.20
2018-08-11T22:42:43.699Z,101817.29
2018-08-11T22:45:13.008Z,101821.72
2018-08-11T22:47:41.660Z,101814.34
2018-08-11T22:50:12.427Z,101819.82
2018-08-11T22:52:41.137Z,101813.50
2018-08-11T22:55:10.176Z,101816.81
2018-08-11T22:57:38.836Z,101812.27
2018-08-11T23:00:15.874Z,101810.27
2018-08-11T23:02:44.912Z,101804.32
2018-08-11T23:05:13.715Z,101805.00
2018-08-11T23:07:42.744Z,101809.59
2018-08-11T23:10:13.246Z,101805.37
2018-08-11T23:12:42.859Z,101799.05
2018-08-11T23:15:14.179Z,101797.16
2018-08-11T23:17:44.368Z,101801.64
2018-08-11T23:20:13.275Z,101797.43
2018-08-11T23:22:41.978Z,101800.42
2018-08-11T23:25:11.311Z,101800.16
2018-08-11T23:27:40.049Z,101796.00
2018-08-11T23:30:12.000Z,101792.35
2018-08-11T23:32:41.545Z,101797.58
2018-08-11T23:35:10.439Z,101793.53
2018-08-11T23:37:39.267Z,101795.14
2018-08-11T23:40:08.955Z,101800.97
2018-08-11T23:42:38.180Z,101793.45
2018-08-11T23:45:11.210Z,101792.77
2018-08-11T23:47:40.501Z,101782.96
2018-08-11T23:50:09.945Z,101789.75
2018-08-11T23:52:39.036Z,101790.02
2018-08-11T23:55:08.525Z,101788.29
2018-08-11T23:57:37.580Z,101779.56
